sensor_id;sensor_type;location;lat;lon;timestamp;pressure;altitude;pressure_sealevel;temperature;humidity
73338;BME280;61575;49.908;35.556;2023-03-21T00:00:54;99223.56;;;-0.53;85.27
73338;BME280;61575;49.908;35.556;2023-03-21T00:03:56;99226.81;;;-0.50;85.30
73338;BME280;61575;49.908;35.556;2023-03-21T00:06:58;99227.56;;;-0.48;85.06
73338;BME280;61575;49.908;35.556;2023-03-21T00:10:00;99227.56;;;-0.48;84.87
73338;BME280;61575;49.908;35.556;2023-03-21T00:13:15;99229.25;;;-0.47;85.55
73338;BME280;61575;49.908;35.556;2023-03-21T00:16:18;99224.59;;;-0.43;85.33
73338;BME280;61575;49.908;35.556;2023-03-21T00:19:31;99227.75;;;-0.38;85.17
73338;BME280;61575;49.908;35.556;2023-03-21T00:22:34;99230.19;;;-0.35;85.37
73338;BME280;61575;49.908;35.556;2023-03-21T00:25:36;99228.16;;;-0.31;85.67
73338;BME280;61575;49.908;35.556;2023-03-21T00:28:40;99225.31;;;-0.28;85.46
73338;BME280;61575;49.908;35.556;2023-03-21T00:31:42;99225.22;;;-0.27;85.29
73338;BME280;61575;49.908;35.556;2023-03-21T00:34:45;99221.63;;;-0.26;85.18
73338;BME280;61575;49.908;35.556;2023-03-21T00:38:02;99223.31;;;-0.25;84.98
73338;BME280;61575;49.908;35.556;2023-03-21T00:41:10;99227.53;;;-0.22;85.20
73338;BME280;61575;49.908;35.556;2023-03-21T00:44:32;99220.34;;;-0.20;85.29
73338;BME280;61575;49.908;35.556;2023-03-21T00:47:37;99222.03;;;-0.19;85.46
73338;BME280;61575;49.908;35.556;2023-03-21T00:50:41;99214.00;;;-0.18;85.53
73338;BME280;61575;49.908;35.556;2023-03-21T00:53:46;99218.44;;;-0.18;85.68
73338;BME280;61575;49.908;35.556;2023-03-21T00:56:48;99214.72;;;-0.16;85.81
73338;BME280;61575;49.908;35.556;2023-03-21T00:59:50;99205.75;;;-0.13;85.73
73338;BME280;61575;49.908;35.556;2023-03-21T01:02:52;99203.84;;;-0.11;85.59
73338;BME280;61575;49.908;35.556;2023-03-21T01:06:18;99196.78;;;-0.10;85.42
73338;BME280;61575;49.908;35.556;2023-03-21T01:09:22;99195.81;;;-0.09;85.12
73338;BME280;61575;49.908;35.556;2023-03-21T01:12:25;99195.72;;;-0.08;85.48
73338;BME280;61575;49.908;35.556;2023-03-21T01:15:29;99189.69;;;-0.10;85.49
73338;BME280;61575;49.908;35.556;2023-03-21T01:18:32;99196.78;;;-0.10;85.81
73338;BME280;61575;49.908;35.556;2023-03-21T01:21:34;99201.22;;;-0.11;85.90
73338;BME280;61575;49.908;35.556;2023-03-21T01:24:36;99193.28;;;-0.11;86.30
73338;BME280;61575;49.908;35.556;2023-03-21T01:27:52;99196.53;;;-0.07;86.39
73338;BME280;61575;49.908;35.556;2023-03-21T01:30:56;99191.16;;;-0.06;86.41
73338;BME280;61575;49.908;35.556;2023-03-21T01:33:58;99192.84;;;-0.05;86.33
73338;BME280;61575;49.908;35.556;2023-03-21T01:36:59;99196.09;;;-0.01;86.17
73338;BME280;61575;49.908;35.556;2023-03-21T01:40:05;99193.34;;;0.00;86.10
73338;BME280;61575;49.908;35.556;2023-03-21T01:43:29;99198.53;;;0.02;86.06
73338;BME280;61575;49.908;35.556;2023-03-21T01:50:17;99200.44;;;-0.00;86.43
73338;BME280;61575;49.908;35.556;2023-03-21T01:53:43;99195.88;;;0.02;86.40
73338;BME280;61575;49.908;35.556;2023-03-21T01:56:47;99200.00;;;0.06;86.67
73338;BME280;61575;49.908;35.556;2023-03-21T01:59:51;99200.72;;;0.08;86.67
73338;BME280;61575;49.908;35.556;2023-03-21T02:02:59;99197.97;;;0.09;86.42
73338;BME280;61575;49.908;35.556;2023-03-21T02:06:35;99201.22;;;0.13;86.49
73338;BME280;61575;49.908;35.556;2023-03-21T02:09:48;99192.25;;;0.15;86.49
73338;BME280;61575;49.908;35.556;2023-03-21T02:12:55;99198.25;;;0.17;86.53
73338;BME280;61575;49.908;35.556;2023-03-21T02:16:16;99200.66;;;0.20;86.67
73338;BME280;61575;49.908;35.556;2023-03-21T02:22:58;99191.44;;;0.26;86.94
73338;BME280;61575;49.908;35.556;2023-03-21T02:33:37;99182.97;;;0.34;86.90
73338;BME280;61575;49.908;35.556;2023-03-21T02:36:52;99178.19;;;0.39;87.03
73338;BME280;61575;49.908;35.556;2023-03-21T02:40:11;99177.22;;;0.40;87.01
73338;BME280;61575;49.908;35.556;2023-03-21T02:44:03;99181.56;;;0.41;86.85
73338;BME280;61575;49.908;35.556;2023-03-21T02:47:05;99180.38;;;0.45;86.79
73338;BME280;61575;49.908;35.556;2023-03-21T02:50:34;99174.84;;;0.48;86.81
73338;BME280;61575;49.908;35.556;2023-03-21T02:53:40;99168.63;;;0.49;86.87
73338;BME280;61575;49.908;35.556;2023-03-21T02:56:46;99171.13;;;0.50;86.75
73338;BME280;61575;49.908;35.556;2023-03-21T02:59:50;99171.88;;;0.52;86.57
73338;BME280;61575;49.908;35.556;2023-03-21T03:03:06;99176.09;;;0.55;86.66
73338;BME280;61575;49.908;35.556;2023-03-21T03:06:26;99169.09;;;0.54;86.78
73338;BME280;61575;49.908;35.556;2023-03-21T03:13:24;99165.63;;;0.53;87.02
73338;BME280;61575;49.908;35.556;2023-03-21T03:19:31;99171.03;;;0.52;87.16
73338;BME280;61575;49.908;35.556;2023-03-21T03:22:56;99168.16;;;0.55;87.10
73338;BME280;61575;49.908;35.556;2023-03-21T03:26:07;99169.94;;;0.55;86.89
73338;BME280;61575;49.908;35.556;2023-03-21T03:29:14;99176.09;;;0.55;86.96
73338;BME280;61575;49.908;35.556;2023-03-21T03:32:35;99164.78;;;0.53;87.27
73338;BME280;61575;49.908;35.556;2023-03-21T03:35:39;99169.94;;;0.55;87.08
73338;BME280;61575;49.908;35.556;2023-03-21T03:38:43;99171.63;;;0.56;87.37
73338;BME280;61575;49.908;35.556;2023-03-21T03:41:52;99176.81;;;0.57;87.36
73338;BME280;61575;49.908;35.556;2023-03-21T03:45:19;99168.75;;;0.59;87.30
73338;BME280;61575;49.908;35.556;2023-03-21T03:48:31;99168.66;;;0.60;87.25
73338;BME280;61575;49.908;35.556;2023-03-21T03:51:51;99166.84;;;0.61;87.31
73338;BME280;61575;49.908;35.556;2023-03-21T03:55:01;99165.88;;;0.62;87.57
73338;BME280;61575;49.908;35.556;2023-03-21T03:58:07;99164.69;;;0.66;87.49
73338;BME280;61575;49.908;35.556;2023-03-21T04:01:23;99169.03;;;0.67;87.70
73338;BME280;61575;49.908;35.556;2023-03-21T04:04:27;99166.16;;;0.70;87.57
73338;BME280;61575;49.908;35.556;2023-03-21T04:07:31;99169.41;;;0.73;87.84
73338;BME280;61575;49.908;35.556;2023-03-21T04:10:35;99163.16;;;0.74;87.74
73338;BME280;61575;49.908;35.556;2023-03-21T04:13:37;99173.63;;;0.76;87.82
73338;BME280;61575;49.908;35.556;2023-03-21T04:16:42;99170.75;;;0.79;87.79
73338;BME280;61575;49.908;35.556;2023-03-21T04:19:44;99165.34;;;0.80;87.79
73338;BME280;61575;49.908;35.556;2023-03-21T04:22:47;99166.56;;;0.88;88.00
73338;BME280;61575;49.908;35.556;2023-03-21T04:25:49;99167.16;;;0.91;88.21
73338;BME280;61575;49.908;35.556;2023-03-21T04:29:11;99161.41;;;0.97;88.31
73338;BME280;61575;49.908;35.556;2023-03-21T04:32:45;99169.94;;;1.01;88.04
73338;BME280;61575;49.908;35.556;2023-03-21T04:35:59;99166.09;;;1.05;88.70
73338;BME280;61575;49.908;35.556;2023-03-21T04:39:05;99168.28;;;1.11;88.67
73338;BME280;61575;49.908;35.556;2023-03-21T04:42:14;99171.41;;;1.16;88.92
73338;BME280;61575;49.908;35.556;2023-03-21T04:45:16;99180.66;;;1.22;89.25
73338;BME280;61575;49.908;35.556;2023-03-21T04:48:19;99180.31;;;1.26;89.14
73338;BME280;61575;49.908;35.556;2023-03-21T04:51:25;99182.47;;;1.32;89.55
73338;BME280;61575;49.908;35.556;2023-03-21T04:54:27;99171.66;;;1.35;89.42
73338;BME280;61575;49.908;35.556;2023-03-21T04:57:30;99172.50;;;1.36;90.36
73338;BME280;61575;49.908;35.556;2023-03-21T05:00:32;99171.16;;;1.41;89.92
73338;BME280;61575;49.908;35.556;2023-03-21T05:03:39;99174.41;;;1.45;89.69
73338;BME280;61575;49.908;35.556;2023-03-21T05:06:41;99160.94;;;1.48;89.98
73338;BME280;61575;49.908;35.556;2023-03-21T05:09:43;99170.81;;;1.57;90.11
73338;BME280;61575;49.908;35.556;2023-03-21T05:12:46;99167.19;;;1.58;90.15
73338;BME280;61575;49.908;35.556;2023-03-21T05:15:48;99162.50;;;1.62;90.21
73338;BME280;61575;49.908;35.556;2023-03-21T05:18:52;99167.66;;;1.63;90.45
73338;BME280;61575;49.908;35.556;2023-03-21T05:21:56;99170.78;;;1.68;90.50
73338;BME280;61575;49.908;35.556;2023-03-21T05:25:00;99176.44;;;1.75;90.47
73338;BME280;61575;49.908;35.556;2023-03-21T05:28:18;99172.22;;;1.83;90.33
73338;BME280;61575;49.908;35.556;2023-03-21T05:31:21;99170.41;;;1.84;90.46
73338;BME280;61575;49.908;35.556;2023-03-21T05:34:28;99171.97;;;1.87;90.90
73338;BME280;61575;49.908;35.556;2023-03-21T05:37:31;99175.56;;;1.97;90.52
73338;BME280;61575;49.908;35.556;2023-03-21T05:40:32;99176.75;;;2.04;90.55
73338;BME280;61575;49.908;35.556;2023-03-21T05:43:36;99170.69;;;2.13;90.26
73338;BME280;61575;49.908;35.556;2023-03-21T05:46:38;99182.47;;;2.20;90.28
73338;BME280;61575;49.908;35.556;2023-03-21T05:49:40;99179.91;;;2.30;90.09
73338;BME280;61575;49.908;35.556;2023-03-21T05:52:42;99170.63;;;2.35;90.06
73338;BME280;61575;49.908;35.556;2023-03-21T05:55:47;99170.81;;;2.43;90.33
73338;BME280;61575;49.908;35.556;2023-03-21T05:59:04;99176.22;;;2.53;90.30
73338;BME280;61575;49.908;35.556;2023-03-21T06:02:13;99174.13;;;2.57;90.34
73338;BME280;61575;49.908;35.556;2023-03-21T06:05:15;99174.34;;;2.65;90.60
73338;BME280;61575;49.908;35.556;2023-03-21T06:08:17;99175.50;;;2.72;90.11
73338;BME280;61575;49.908;35.556;2023-03-21T06:11:30;99172.09;;;2.81;90.19
73338;BME280;61575;49.908;35.556;2023-03-21T06:14:56;99166.97;;;2.89;90.09
73338;BME280;61575;49.908;35.556;2023-03-21T06:18:04;99172.34;;;2.99;89.82
73338;BME280;61575;49.908;35.556;2023-03-21T06:21:08;99175.13;;;2.97;89.39
73338;BME280;61575;49.908;35.556;2023-03-21T06:24:13;99173.38;;;3.07;89.15
73338;BME280;61575;49.908;35.556;2023-03-21T06:27:15;99165.72;;;3.14;89.29
73338;BME280;61575;49.908;35.556;2023-03-21T06:30:23;99173.03;;;3.22;89.56
73338;BME280;61575;49.908;35.556;2023-03-21T06:33:44;99173.34;;;3.28;89.18
73338;BME280;61575;49.908;35.556;2023-03-21T06:36:47;99175.06;;;3.39;89.10
73338;BME280;61575;49.908;35.556;2023-03-21T06:39:51;99172.47;;;3.49;88.64
73338;BME280;61575;49.908;35.556;2023-03-21T06:42:56;99169.56;;;3.61;88.18
73338;BME280;61575;49.908;35.556;2023-03-21T06:45:59;99178.94;;;3.65;87.87
73338;BME280;61575;49.908;35.556;2023-03-21T06:49:02;99173.41;;;3.78;87.97
73338;BME280;61575;49.908;35.556;2023-03-21T06:52:04;99168.13;;;3.88;87.53
73338;BME280;61575;49.908;35.556;2023-03-21T06:55:06;99169.69;;;4.00;87.63
73338;BME280;61575;49.908;35.556;2023-03-21T06:58:09;99160.59;;;4.12;87.09
73338;BME280;61575;49.908;35.556;2023-03-21T07:01:12;99157.22;;;4.20;87.26
73338;BME280;61575;49.908;35.556;2023-03-21T07:04:26;99156.00;;;4.33;87.17
73338;BME280;61575;49.908;35.556;2023-03-21T07:07:29;99157.81;;;4.42;87.19
73338;BME280;61575;49.908;35.556;2023-03-21T07:10:31;99156.81;;;4.53;87.17
73338;BME280;61575;49.908;35.556;2023-03-21T07:13:39;99161.44;;;4.61;86.57
73338;BME280;61575;49.908;35.556;2023-03-21T07:16:41;99146.47;;;4.60;85.86
73338;BME280;61575;49.908;35.556;2023-03-21T07:19:43;99157.66;;;4.63;85.76
73338;BME280;61575;49.908;35.556;2023-03-21T07:22:47;99155.97;;;4.72;85.82
73338;BME280;61575;49.908;35.556;2023-03-21T07:25:49;99159.78;;;4.79;85.36
73338;BME280;61575;49.908;35.556;2023-03-21T07:28:51;99156.00;;;4.82;85.11
73338;BME280;61575;49.908;35.556;2023-03-21T07:31:54;99157.50;;;5.03;85.29
73338;BME280;61575;49.908;35.556;2023-03-21T07:34:56;99163.34;;;5.17;84.19
73338;BME280;61575;49.908;35.556;2023-03-21T07:38:02;99162.78;;;5.23;83.57
73338;BME280;61575;49.908;35.556;2023-03-21T07:41:04;99167.78;;;5.35;83.21
73338;BME280;61575;49.908;35.556;2023-03-21T07:44:07;99168.03;;;5.42;82.32
73338;BME280;61575;49.908;35.556;2023-03-21T07:47:09;99171.38;;;5.44;81.80
73338;BME280;61575;49.908;35.556;2023-03-21T07:50:11;99162.28;;;5.47;81.15
73338;BME280;61575;49.908;35.556;2023-03-21T07:53:13;99172.59;;;5.59;80.77
73338;BME280;61575;49.908;35.556;2023-03-21T07:56:15;99166.97;;;5.62;80.52
73338;BME280;61575;49.908;35.556;2023-03-21T07:59:17;99163.72;;;5.68;80.18
73338;BME280;61575;49.908;35.556;2023-03-21T08:02:19;99165.00;;;5.64;79.93
73338;BME280;61575;49.908;35.556;2023-03-21T08:05:28;99169.16;;;5.77;80.03
73338;BME280;61575;49.908;35.556;2023-03-21T08:08:30;99164.91;;;5.84;79.82
73338;BME280;61575;49.908;35.556;2023-03-21T08:11:32;99155.31;;;5.91;79.80
73338;BME280;61575;49.908;35.556;2023-03-21T08:14:34;99157.41;;;5.97;80.03
73338;BME280;61575;49.908;35.556;2023-03-21T08:17:37;99150.53;;;5.94;78.82
73338;BME280;61575;49.908;35.556;2023-03-21T08:20:40;99154.72;;;5.97;79.19
73338;BME280;61575;49.908;35.556;2023-03-21T08:23:42;99150.09;;;5.99;79.18
73338;BME280;61575;49.908;35.556;2023-03-21T08:26:44;99144.00;;;6.07;79.04
73338;BME280;61575;49.908;35.556;2023-03-21T08:29:46;99139.75;;;6.14;78.74
73338;BME280;61575;49.908;35.556;2023-03-21T08:32:48;99136.72;;;6.26;78.18
73338;BME280;61575;49.908;35.556;2023-03-21T08:35:51;99136.63;;;6.36;77.92
73338;BME280;61575;49.908;35.556;2023-03-21T08:38:55;99143.13;;;6.51;77.83
73338;BME280;61575;49.908;35.556;2023-03-21T08:42:05;99143.03;;;6.61;77.40
73338;BME280;61575;49.908;35.556;2023-03-21T08:45:09;99142.78;;;6.72;76.80
73338;BME280;61575;49.908;35.556;2023-03-21T08:48:11;99136.53;;;6.81;76.75
73338;BME280;61575;49.908;35.556;2023-03-21T08:51:13;99134.59;;;6.91;76.76
73338;BME280;61575;49.908;35.556;2023-03-21T08:54:19;99131.78;;;6.93;76.50
73338;BME280;61575;49.908;35.556;2023-03-21T08:57:22;99140.00;;;6.99;76.43
73338;BME280;61575;49.908;35.556;2023-03-21T09:00:24;99138.31;;;6.98;76.41
73338;BME280;61575;49.908;35.556;2023-03-21T09:03:26;99132.66;;;7.01;76.46
73338;BME280;61575;49.908;35.556;2023-03-21T09:06:28;99130.25;;;7.16;76.12
73338;BME280;61575;49.908;35.556;2023-03-21T09:09:31;99130.88;;;7.28;76.03
73338;BME280;61575;49.908;35.556;2023-03-21T09:12:33;99137.41;;;7.33;75.34
73338;BME280;61575;49.908;35.556;2023-03-21T09:15:35;99123.88;;;7.35;74.94
73338;BME280;61575;49.908;35.556;2023-03-21T09:18:37;99130.09;;;7.44;74.56
73338;BME280;61575;49.908;35.556;2023-03-21T09:21:51;99126.63;;;7.51;74.75
73338;BME280;61575;49.908;35.556;2023-03-21T09:24:54;99130.06;;;7.70;74.79
73338;BME280;61575;49.908;35.556;2023-03-21T09:27:56;99124.59;;;7.79;74.16
73338;BME280;61575;49.908;35.556;2023-03-21T09:30:58;99122.63;;;7.89;73.88
73338;BME280;61575;49.908;35.556;2023-03-21T09:34:04;99125.16;;;7.99;73.27
73338;BME280;61575;49.908;35.556;2023-03-21T09:37:07;99121.69;;;8.23;73.35
73338;BME280;61575;49.908;35.556;2023-03-21T09:40:22;99122.22;;;8.35;72.67
73338;BME280;61575;49.908;35.556;2023-03-21T09:47:00;99123.72;;;8.53;70.95
73338;BME280;61575;49.908;35.556;2023-03-21T09:50:19;99127.91;;;8.64;71.16
73338;BME280;61575;49.908;35.556;2023-03-21T09:53:31;99125.41;;;8.62;71.38
73338;BME280;61575;49.908;35.556;2023-03-21T09:56:37;99128.75;;;8.73;71.46
73338;BME280;61575;49.908;35.556;2023-03-21T09:59:41;99126.56;;;8.92;71.38
73338;BME280;61575;49.908;35.556;2023-03-21T10:02:48;99120.38;;;9.00;70.23
73338;BME280;61575;49.908;35.556;2023-03-21T10:05:54;99111.47;;;9.08;69.75
73338;BME280;61575;49.908;35.556;2023-03-21T10:09:03;99115.84;;;9.09;69.49
73338;BME280;61575;49.908;35.556;2023-03-21T10:12:20;99114.16;;;9.08;68.92
73338;BME280;61575;49.908;35.556;2023-03-21T10:15:24;99112.16;;;9.18;69.15
73338;BME280;61575;49.908;35.556;2023-03-21T10:18:29;99108.06;;;9.38;68.75
73338;BME280;61575;49.908;35.556;2023-03-21T10:21:31;99106.53;;;9.44;68.33
73338;BME280;61575;49.908;35.556;2023-03-21T10:24:53;99108.69;;;9.48;67.92
73338;BME280;61575;49.908;35.556;2023-03-21T10:27:55;99102.16;;;9.51;67.70
73338;BME280;61575;49.908;35.556;2023-03-21T10:31:08;99100.31;;;9.51;67.02
73338;BME280;61575;49.908;35.556;2023-03-21T10:34:24;99100.31;;;9.51;67.14
73338;BME280;61575;49.908;35.556;2023-03-21T10:37:28;99088.56;;;9.52;67.33
73338;BME280;61575;49.908;35.556;2023-03-21T10:40:32;99085.69;;;9.62;67.20
73338;BME280;61575;49.908;35.556;2023-03-21T10:43:38;99083.00;;;9.62;66.81
73338;BME280;61575;49.908;35.556;2023-03-21T10:46:50;99077.47;;;9.64;66.62
73338;BME280;61575;49.908;35.556;2023-03-21T10:49:53;99070.34;;;9.79;66.84
73338;BME280;61575;49.908;35.556;2023-03-21T10:53:21;99071.28;;;9.94;66.42
73338;BME280;61575;49.908;35.556;2023-03-21T10:56:29;99076.91;;;10.07;66.17
73338;BME280;61575;49.908;35.556;2023-03-21T10:59:42;99084.09;;;10.07;65.87
73338;BME280;61575;49.908;35.556;2023-03-21T11:02:50;99073.84;;;10.10;66.68
73338;BME280;61575;49.908;35.556;2023-03-21T11:05:54;99070.16;;;10.11;65.99
73338;BME280;61575;49.908;35.556;2023-03-21T11:09:04;99083.00;;;10.24;66.06
73338;BME280;61575;49.908;35.556;2023-03-21T11:12:11;99074.16;;;10.38;66.40
73338;BME280;61575;49.908;35.556;2023-03-21T11:18:32;99072.72;;;10.50;65.88
73338;BME280;61575;49.908;35.556;2023-03-21T11:21:40;99078.28;;;10.49;65.73
73338;BME280;61575;49.908;35.556;2023-03-21T11:24:48;99076.28;;;10.66;65.71
73338;BME280;61575;49.908;35.556;2023-03-21T11:27:53;99069.13;;;10.58;64.99
73338;BME280;61575;49.908;35.556;2023-03-21T11:30:57;99067.41;;;10.65;65.29
73338;BME280;61575;49.908;35.556;2023-03-21T11:34:05;99073.28;;;10.69;64.92
73338;BME280;61575;49.908;35.556;2023-03-21T11:43:37;99071.41;;;10.69;65.50
73338;BME280;61575;49.908;35.556;2023-03-21T11:46:40;99063.09;;;10.79;65.22
73338;BME280;61575;49.908;35.556;2023-03-21T11:49:42;99061.00;;;10.89;65.22
73338;BME280;61575;49.908;35.556;2023-03-21T12:02:51;99047.88;;;11.23;63.87
73338;BME280;61575;49.908;35.556;2023-03-21T12:06:02;99056.38;;;11.27;63.39
73338;BME280;61575;49.908;35.556;2023-03-21T12:15:51;99044.28;;;12.18;62.38
73338;BME280;61575;49.908;35.556;2023-03-21T12:25:41;99034.03;;;11.92;61.62
73338;BME280;61575;49.908;35.556;2023-03-21T12:45:30;99020.50;;;11.49;62.11
73338;BME280;61575;49.908;35.556;2023-03-21T12:48:56;99021.63;;;11.40;61.44
73338;BME280;61575;49.908;35.556;2023-03-21T12:55:54;99022.56;;;11.33;62.42
73338;BME280;61575;49.908;35.556;2023-03-21T13:02:35;99024.13;;;10.98;61.70
73338;BME280;61575;49.908;35.556;2023-03-21T13:05:47;99023.84;;;10.93;62.49
73338;BME280;61575;49.908;35.556;2023-03-21T13:09:05;99024.22;;;10.89;63.67
73338;BME280;61575;49.908;35.556;2023-03-21T13:12:24;99023.38;;;10.74;63.39
73338;BME280;61575;49.908;35.556;2023-03-21T13:22:22;99025.72;;;10.54;64.05
73338;BME280;61575;49.908;35.556;2023-03-21T13:25:29;99026.31;;;10.42;64.17
73338;BME280;61575;49.908;35.556;2023-03-21T13:28:34;99030.81;;;10.26;65.02
73338;BME280;61575;49.908;35.556;2023-03-21T13:31:43;99029.03;;;10.19;65.41
73338;BME280;61575;49.908;35.556;2023-03-21T13:34:54;99032.19;;;10.22;65.86
73338;BME280;61575;49.908;35.556;2023-03-21T13:38:02;99035.41;;;10.18;65.94
73338;BME280;61575;49.908;35.556;2023-03-21T13:41:17;99034.16;;;10.06;65.05
73338;BME280;61575;49.908;35.556;2023-03-21T13:50:51;99025.84;;;10.38;64.10
73338;BME280;61575;49.908;35.556;2023-03-21T14:00:38;99013.34;;;10.68;61.59
73338;BME280;61575;49.908;35.556;2023-03-21T14:03:40;99011.97;;;10.72;61.48
73338;BME280;61575;49.908;35.556;2023-03-21T14:07:01;99013.50;;;10.67;60.93
73338;BME280;61575;49.908;35.556;2023-03-21T14:10:16;99017.41;;;10.64;61.26
73338;BME280;61575;49.908;35.556;2023-03-21T14:13:22;99013.03;;;10.63;61.47
73338;BME280;61575;49.908;35.556;2023-03-21T14:16:26;99017.47;;;10.56;61.23
73338;BME280;61575;49.908;35.556;2023-03-21T14:19:31;99009.13;;;10.51;61.47
73338;BME280;61575;49.908;35.556;2023-03-21T14:22:33;99012.91;;;10.42;61.47
73338;BME280;61575;49.908;35.556;2023-03-21T14:25:37;99014.47;;;10.36;61.46
73338;BME280;61575;49.908;35.556;2023-03-21T14:28:50;99015.19;;;10.30;61.74
73338;BME280;61575;49.908;35.556;2023-03-21T14:31:54;99010.34;;;10.25;61.98
73338;BME280;61575;49.908;35.556;2023-03-21T14:34:59;99016.38;;;10.27;62.43
73338;BME280;61575;49.908;35.556;2023-03-21T14:38:07;99013.41;;;10.22;62.76
73338;BME280;61575;49.908;35.556;2023-03-21T14:41:27;99011.78;;;10.13;61.50
73338;BME280;61575;49.908;35.556;2023-03-21T14:44:50;99015.97;;;10.16;62.66
73338;BME280;61575;49.908;35.556;2023-03-21T14:48:15;99020.03;;;10.12;63.03
73338;BME280;61575;49.908;35.556;2023-03-21T14:51:17;99025.38;;;10.12;63.24
73338;BME280;61575;49.908;35.556;2023-03-21T14:54:20;99021.16;;;10.17;62.89
73338;BME280;61575;49.908;35.556;2023-03-21T14:57:25;99019.91;;;10.28;63.11
73338;BME280;61575;49.908;35.556;2023-03-21T15:00:29;99024.06;;;10.31;62.94
73338;BME280;61575;49.908;35.556;2023-03-21T15:03:32;99031.16;;;10.23;62.80
73338;BME280;61575;49.908;35.556;2023-03-21T15:06:47;99027.41;;;10.10;62.52
73338;BME280;61575;49.908;35.556;2023-03-21T15:09:54;99023.06;;;10.09;62.87
73338;BME280;61575;49.908;35.556;2023-03-21T15:13:00;99021.28;;;10.01;63.18
73338;BME280;61575;49.908;35.556;2023-03-21T15:16:04;99028.00;;;9.97;63.41
73338;BME280;61575;49.908;35.556;2023-03-21T15:19:06;99028.41;;;9.86;63.15
73338;BME280;61575;49.908;35.556;2023-03-21T15:25:19;99030.31;;;9.77;64.08
73338;BME280;61575;49.908;35.556;2023-03-21T15:28:24;99025.16;;;9.68;64.87
73338;BME280;61575;49.908;35.556;2023-03-21T15:31:33;99030.75;;;9.58;64.96
73338;BME280;61575;49.908;35.556;2023-03-21T15:34:37;99032.63;;;9.49;65.12
73338;BME280;61575;49.908;35.556;2023-03-21T15:37:39;99031.00;;;9.40;65.87
73338;BME280;61575;49.908;35.556;2023-03-21T15:40:41;99028.91;;;9.27;66.51
73338;BME280;61575;49.908;35.556;2023-03-21T15:43:43;99022.44;;;9.14;66.92
73338;BME280;61575;49.908;35.556;2023-03-21T15:46:47;99029.13;;;9.02;66.98
73338;BME280;61575;49.908;35.556;2023-03-21T15:49:53;99031.50;;;8.88;67.22
73338;BME280;61575;49.908;35.556;2023-03-21T15:53:00;99029.03;;;8.71;67.85
73338;BME280;61575;49.908;35.556;2023-03-21T15:56:04;99030.56;;;8.57;68.12
73338;BME280;61575;49.908;35.556;2023-03-21T15:59:14;99027.91;;;8.41;68.85
73338;BME280;61575;49.908;35.556;2023-03-21T16:02:20;99031.91;;;8.28;69.27
73338;BME280;61575;49.908;35.556;2023-03-21T16:05:33;99026.38;;;8.14;69.72
73338;BME280;61575;49.908;35.556;2023-03-21T16:12:11;99032.22;;;7.85;69.72
73338;BME280;61575;49.908;35.556;2023-03-21T16:15:13;99032.84;;;7.71;69.49
73338;BME280;61575;49.908;35.556;2023-03-21T16:18:16;99034.16;;;7.58;69.95
73338;BME280;61575;49.908;35.556;2023-03-21T16:21:20;99037.44;;;7.44;70.43
73338;BME280;61575;49.908;35.556;2023-03-21T16:24:23;99037.22;;;7.29;70.54
73338;BME280;61575;49.908;35.556;2023-03-21T16:27:24;99038.47;;;7.17;70.81
73338;BME280;61575;49.908;35.556;2023-03-21T16:30:26;99050.59;;;7.03;71.32
73338;BME280;61575;49.908;35.556;2023-03-21T16:33:28;99054.19;;;6.94;71.56
73338;BME280;61575;49.908;35.556;2023-03-21T16:36:32;99055.63;;;6.81;71.61
73338;BME280;61575;49.908;35.556;2023-03-21T16:39:37;99057.72;;;6.69;71.83
73338;BME280;61575;49.908;35.556;2023-03-21T16:42:39;99059.66;;;6.59;72.16
73338;BME280;61575;49.908;35.556;2023-03-21T16:45:41;99058.91;;;6.49;72.41
73338;BME280;61575;49.908;35.556;2023-03-21T16:48:45;99069.50;;;6.41;72.35
73338;BME280;61575;49.908;35.556;2023-03-21T16:51:48;99065.94;;;6.32;72.45
73338;BME280;61575;49.908;35.556;2023-03-21T16:54:52;99070.34;;;6.23;73.05
73338;BME280;61575;49.908;35.556;2023-03-21T16:57:54;99072.41;;;6.12;74.24
73338;BME280;61575;49.908;35.556;2023-03-21T17:00:57;99077.13;;;6.00;74.40
73338;BME280;61575;49.908;35.556;2023-03-21T17:03:59;99074.53;;;5.90;74.60
73338;BME280;61575;49.908;35.556;2023-03-21T17:07:02;99083.75;;;5.78;75.39
73338;BME280;61575;49.908;35.556;2023-03-21T17:13:14;99090.72;;;5.61;75.45
73338;BME280;61575;49.908;35.556;2023-03-21T17:16:18;99081.63;;;5.54;75.40
73338;BME280;61575;49.908;35.556;2023-03-21T17:19:21;99084.19;;;5.46;75.66
73338;BME280;61575;49.908;35.556;2023-03-21T17:22:27;99090.41;;;5.37;76.19
73338;BME280;61575;49.908;35.556;2023-03-21T17:25:29;99086.97;;;5.27;76.70
73338;BME280;61575;49.908;35.556;2023-03-21T17:28:31;99083.06;;;5.21;76.70
73338;BME280;61575;49.908;35.556;2023-03-21T17:31:35;99089.81;;;5.16;76.19
73338;BME280;61575;49.908;35.556;2023-03-21T17:34:37;99092.06;;;5.11;76.05
73338;BME280;61575;49.908;35.556;2023-03-21T17:37:39;99097.69;;;5.07;75.88
73338;BME280;61575;49.908;35.556;2023-03-21T17:40:41;99103.59;;;5.01;77.05
73338;BME280;61575;49.908;35.556;2023-03-21T17:43:43;99102.63;;;4.93;77.12
73338;BME280;61575;49.908;35.556;2023-03-21T17:46:46;99105.88;;;4.87;76.98
73338;BME280;61575;49.908;35.556;2023-03-21T17:49:51;99112.84;;;4.78;77.46
73338;BME280;61575;49.908;35.556;2023-03-21T17:52:53;99112.72;;;4.70;77.92
73338;BME280;61575;49.908;35.556;2023-03-21T17:55:57;99110.34;;;4.67;77.86
73338;BME280;61575;49.908;35.556;2023-03-21T17:59:02;99112.72;;;4.60;77.65
73338;BME280;61575;49.908;35.556;2023-03-21T18:02:04;99112.47;;;4.54;77.94
73338;BME280;61575;49.908;35.556;2023-03-21T18:05:07;99119.19;;;4.48;78.14
73338;BME280;61575;49.908;35.556;2023-03-21T18:08:10;99115.41;;;4.41;78.06
73338;BME280;61575;49.908;35.556;2023-03-21T18:11:14;99116.94;;;4.34;78.29
73338;BME280;61575;49.908;35.556;2023-03-21T18:14:16;99107.03;;;4.26;79.04
73338;BME280;61575;49.908;35.556;2023-03-21T18:17:29;99110.09;;;4.22;78.42